Time;durP1;ratioP1;P1;durP2;ratioP2;P2;SDS_P1;SDS_P2;PMS_P1;PMS_P2;Temp;Humidity;BMP_temperature;BMP_pressure;BME280_temperature;BME280_humidity;BME280_pressure;Samples;Min_cycle;Max_cycle;Signal;HPM_P1;HPM_P2
2021/10/01 00:00:49;;;;;;;;;;;;;;;5.32;100.00;101832.53;4995077;28;19933;-68
2021/10/01 00:03:16;;;;;;;;;;;;;;;5.40;100.00;101820.56;4994422;28;20024;-68
2021/10/01 00:05:44;;;;;;;;;;;;;;;5.55;100.00;101830.72;4994169;28;19965;-68
2021/10/01 00:08:10;;;;;;;;;;;;;;;5.71;100.00;101820.16;4993600;28;20028;-68
2021/10/01 00:10:36;;;;;;;;;;;;;;;5.90;100.00;101824.75;4995013;28;19926;-68
2021/10/01 00:13:03;;;;;;;;;;;;;;;6.07;100.00;101819.50;4994648;28;20029;-68
2021/10/01 00:15:31;;;;;;;;;;;;;;;6.20;100.00;101811.75;4995074;28;19926;-68
2021/10/01 00:17:58;;;;;;;;;;;;;;;6.32;100.00;101805.78;4993497;28;20382;-68
2021/10/01 00:20:24;;;;;;;;;;;;;;;6.47;100.00;101806.03;4994685;28;20045;-68
2021/10/01 00:22:52;;;;;;;;;;;;;;;6.60;100.00;101795.50;4994867;28;19973;-68
2021/10/01 00:25:19;;;;;;;;;;;;;;;6.74;100.00;101800.25;4994582;28;19965;-68
2021/10/01 00:27:46;;;;;;;;;;;;;;;6.82;100.00;101793.53;4994668;28;20028;-68
2021/10/01 00:30:12;;;;;;;;;;;;;;;6.89;100.00;101785.16;4994455;28;20037;-68
2021/10/01 00:32:38;;;;;;;;;;;;;;;6.92;100.00;101783.19;4994441;28;20012;-68
2021/10/01 00:35:05;;;;;;;;;;;;;;;6.95;100.00;101788.41;4993333;28;19972;-68
2021/10/01 00:37:31;;;;;;;;;;;;;;;6.97;100.00;101782.94;4994333;28;19933;-68
2021/10/01 00:39:59;;;;;;;;;;;;;;;6.97;100.00;101781.09;4994553;28;20012;-68
2021/10/01 00:42:25;;;;;;;;;;;;;;;6.94;100.00;101772.31;4994229;28;19961;-68
2021/10/01 00:44:54;;;;;;;;;;;;;;;6.89;100.00;101777.91;4994384;28;20025;-71
2021/10/01 00:47:20;;;;;;;;;;;;;;;6.91;100.00;101777.81;4994137;28;19926;-71
2021/10/01 00:49:47;;;;;;;;;;;;;;;6.93;100.00;101770.53;4992602;28;19926;-71
2021/10/01 00:52:15;;;;;;;;;;;;;;;6.92;100.00;101761.59;4992961;28;19941;-71
2021/10/01 00:54:42;;;;;;;;;;;;;;;6.92;100.00;101764.28;4992713;28;20031;-71
2021/10/01 00:57:09;;;;;;;;;;;;;;;6.91;100.00;101764.34;4993934;28;20020;-71
2021/10/01 00:59:36;;;;;;;;;;;;;;;6.90;100.00;101762.59;4993927;28;19932;-71
2021/10/01 01:02:02;;;;;;;;;;;;;;;6.90;100.00;101759.91;4992582;28;19945;-71
2021/10/01 01:04:29;;;;;;;;;;;;;;;6.84;100.00;101758.34;4992713;28;19930;-71
2021/10/01 01:07:00;;;;;;;;;;;;;;;6.80;100.00;101760.34;4976107;28;19925;-71
2021/10/01 01:09:33;;;;;;;;;;;;;;;6.75;100.00;101761.50;4992630;28;19925;-71
2021/10/01 01:12:03;;;;;;;;;;;;;;;6.72;100.00;101762.56;4992286;28;19941;-71
2021/10/01 01:14:34;;;;;;;;;;;;;;;6.69;100.00;101757.28;4992695;28;19929;-71
2021/10/01 01:17:02;;;;;;;;;;;;;;;6.64;100.00;101756.63;4991985;28;19984;-71
2021/10/01 01:19:31;;;;;;;;;;;;;;;6.60;100.00;101755.94;4992545;28;19933;-68
2021/10/01 01:22:04;;;;;;;;;;;;;;;6.59;100.00;101754.16;4976222;28;19972;-68
2021/10/01 01:24:40;;;;;;;;;;;;;;;6.57;100.00;101757.91;4992365;28;20436;-68
2021/10/01 01:27:27;;;;;;;;;;;;;;;6.54;100.00;101758.91;4992182;28;19930;-68
2021/10/01 01:29:59;;;;;;;;;;;;;;;6.47;100.00;101761.03;4992225;28;19957;-70
2021/10/01 01:32:27;;;;;;;;;;;;;;;6.44;100.00;101753.09;4992170;28;20001;-71
2021/10/01 01:34:55;;;;;;;;;;;;;;;6.44;100.00;101757.59;4993330;28;19929;-71
2021/10/01 01:37:23;;;;;;;;;;;;;;;6.40;100.00;101756.88;4992064;28;19926;-71
2021/10/01 01:39:51;;;;;;;;;;;;;;;6.38;100.00;101749.81;4992258;28;19933;-68
2021/10/01 01:42:19;;;;;;;;;;;;;;;6.33;100.00;101745.50;4991915;28;20413;-68
2021/10/01 01:44:47;;;;;;;;;;;;;;;6.29;100.00;101748.41;4992044;28;20399;-68
2021/10/01 01:47:14;;;;;;;;;;;;;;;6.27;100.00;101750.31;4975343;28;20405;-68
2021/10/01 01:49:44;;;;;;;;;;;;;;;6.27;100.00;101740.41;4992011;28;20298;-68
2021/10/01 01:52:10;;;;;;;;;;;;;;;6.26;100.00;101744.03;4992755;28;19996;-68
2021/10/01 01:54:38;;;;;;;;;;;;;;;6.26;100.00;101743.16;4993123;28;19934;-68
2021/10/01 01:57:05;;;;;;;;;;;;;;;6.26;100.00;101743.16;4992381;28;19925;-68
2021/10/01 01:59:32;;;;;;;;;;;;;;;6.20;100.00;101749.72;4991578;28;19976;-68
2021/10/01 02:02:00;;;;;;;;;;;;;;;6.12;100.00;101755.47;4991434;28;19932;-68
2021/10/01 02:04:27;;;;;;;;;;;;;;;6.11;100.00;101751.03;4991479;28;19929;-68
2021/10/01 02:06:55;;;;;;;;;;;;;;;6.15;100.00;101757.16;4992725;28;19926;-68
2021/10/01 02:09:24;;;;;;;;;;;;;;;6.16;100.00;101742.69;4991510;28;19980;-68
2021/10/01 02:11:50;;;;;;;;;;;;;;;6.15;100.00;101751.75;4991409;28;19925;-68
2021/10/01 02:14:18;;;;;;;;;;;;;;;6.11;100.00;101742.06;4991417;28;19930;-68
2021/10/01 02:16:47;;;;;;;;;;;;;;;6.02;100.00;101748.75;4991307;28;19925;-68
2021/10/01 02:19:14;;;;;;;;;;;;;;;5.92;100.00;101742.88;4991415;28;19952;-68
2021/10/01 02:21:41;;;;;;;;;;;;;;;5.86;100.00;101740.44;4992414;28;19964;-68
2021/10/01 02:24:09;;;;;;;;;;;;;;;5.84;100.00;101742.34;4991283;28;20281;-68
2021/10/01 02:26:36;;;;;;;;;;;;;;;5.81;100.00;101742.47;4974607;28;20378;-68
2021/10/01 02:29:06;;;;;;;;;;;;;;;5.79;100.00;101738.97;4990812;28;19926;-68
2021/10/01 02:31:34;;;;;;;;;;;;;;;5.74;100.00;101741.88;4974955;28;20385;-68
2021/10/01 02:34:05;;;;;;;;;;;;;;;5.71;100.00;101736.63;4991042;28;19988;-68
2021/10/01 02:36:32;;;;;;;;;;;;;;;5.73;100.00;101740.09;4991174;28;19980;-68
2021/10/01 02:38:59;;;;;;;;;;;;;;;5.75;100.00;101737.38;4991009;28;19925;-68
2021/10/01 02:41:26;;;;;;;;;;;;;;;5.70;100.00;101737.56;4990905;28;19951;-68
2021/10/01 02:43:53;;;;;;;;;;;;;;;5.64;100.00;101729.78;4991225;28;19968;-68
2021/10/01 02:46:19;;;;;;;;;;;;;;;5.62;100.00;101728.97;4990845;28;19926;-68
2021/10/01 02:48:48;;;;;;;;;;;;;;;5.64;100.00;101729.78;4991091;28;20405;-68
2021/10/01 02:51:16;;;;;;;;;;;;;;;5.63;100.00;101738.78;4990731;28;19933;-68
2021/10/01 02:53:48;;;;;;;;;;;;;;;5.59;100.00;101732.66;4991065;28;19930;-68
2021/10/01 02:56:16;;;;;;;;;;;;;;;5.59;100.00;101727.28;4990831;28;19933;-68
2021/10/01 02:58:46;;;;;;;;;;;;;;;5.63;100.00;101731.56;4990939;28;19933;-68
2021/10/01 03:01:15;;;;;;;;;;;;;;;5.73;100.00;101731.16;4992063;28;20035;-68
2021/10/01 03:03:43;;;;;;;;;;;;;;;5.80;100.00;101724.53;4990867;28;19947;-68
2021/10/01 03:06:10;;;;;;;;;;;;;;;5.87;100.00;101720.66;4991936;28;19996;-71
2021/10/01 03:08:38;;;;;;;;;;;;;;;5.88;100.00;101717.00;4990872;28;19925;-70
2021/10/01 03:11:10;;;;;;;;;;;;;;;5.90;100.00;101719.63;4992074;28;20440;-70
2021/10/01 03:13:37;;;;;;;;;;;;;;;5.89;100.00;101717.88;4990874;28;19934;-70
2021/10/01 03:16:04;;;;;;;;;;;;;;;5.87;100.00;101710.72;4990560;28;19933;-71
2021/10/01 03:18:33;;;;;;;;;;;;;;;5.86;100.00;101713.50;4990794;28;20372;-71
2021/10/01 03:21:01;;;;;;;;;;;;;;;5.86;100.00;101711.66;4990342;28;20049;-71
2021/10/01 03:23:27;;;;;;;;;;;;;;;5.85;100.00;101712.63;4990574;28;20024;-71
2021/10/01 03:25:54;;;;;;;;;;;;;;;5.85;100.00;101701.84;4990477;28;20382;-71
2021/10/01 03:28:21;;;;;;;;;;;;;;;5.86;100.00;101708.09;4974407;28;19936;-71
2021/10/01 03:30:48;;;;;;;;;;;;;;;5.90;100.00;101698.06;4991764;28;20028;-71
2021/10/01 03:33:16;;;;;;;;;;;;;;;5.89;100.00;101697.19;4990440;28;19930;-71
2021/10/01 03:35:44;;;;;;;;;;;;;;;5.92;100.00;101694.38;4990702;28;19930;-71
2021/10/01 03:38:11;;;;;;;;;;;;;;;5.93;100.00;101697.91;4990583;28;19932;-70
2021/10/01 03:40:41;;;;;;;;;;;;;;;5.91;100.00;101694.44;4993824;28;20456;-74
2021/10/01 03:43:08;;;;;;;;;;;;;;;5.85;100.00;101684.78;4995021;28;19925;-74
2021/10/01 03:45:35;;;;;;;;;;;;;;;5.83;100.00;101692.94;4994210;28;20067;-74
2021/10/01 03:48:03;;;;;;;;;;;;;;;5.82;100.00;101693.03;4993880;28;19933;-73
2021/10/01 03:50:34;;;;;;;;;;;;;;;5.82;100.00;101696.59;4993880;28;19926;-73
2021/10/01 03:53:01;;;;;;;;;;;;;;;5.80;100.00;101698.50;4995841;28;19926;-73
2021/10/01 03:55:28;;;;;;;;;;;;;;;5.78;100.00;101694.13;4995859;28;19929;-74
2021/10/01 03:57:54;;;;;;;;;;;;;;;5.73;100.00;101688.91;4995123;28;20398;-74
2021/10/01 04:00:22;;;;;;;;;;;;;;;5.70;100.00;101684.56;4993684;28;19926;-73
2021/10/01 04:02:48;;;;;;;;;;;;;;;5.73;100.00;101688.06;4995122;28;19930;-74
2021/10/01 04:05:19;;;;;;;;;;;;;;;5.70;100.00;101683.69;4993866;28;19934;-73
2021/10/01 04:07:46;;;;;;;;;;;;;;;5.70;100.00;101681.88;4993316;28;20295;-74
2021/10/01 04:10:13;;;;;;;;;;;;;;;5.67;100.00;101681.13;4977363;28;20297;-74
2021/10/01 04:12:40;;;;;;;;;;;;;;;5.64;100.00;101681.28;4977223;28;20368;-74
2021/10/01 04:15:17;;;;;;;;;;;;;;;5.63;100.00;101683.09;4993521;28;20012;-74
2021/10/01 04:17:44;;;;;;;;;;;;;;;5.60;100.00;101690.41;4977085;28;20448;-74
2021/10/01 04:20:12;;;;;;;;;;;;;;;5.58;100.00;101692.31;4993477;28;20016;-74
2021/10/01 04:22:40;;;;;;;;;;;;;;;5.53;100.00;101693.41;4993520;28;19995;-74
2021/10/01 04:25:27;;;;;;;;;;;;;;;5.52;100.00;101688.97;4994504;28;20447;-74
2021/10/01 04:27:53;;;;;;;;;;;;;;;5.53;100.00;101684.44;4993311;28;19925;-74
2021/10/01 04:30:20;;;;;;;;;;;;;;;5.53;100.00;101682.63;4993224;28;19933;-74
2021/10/01 04:32:50;;;;;;;;;;;;;;;5.53;100.00;101679.94;4993374;28;19976;-74
2021/10/01 04:35:17;;;;;;;;;;;;;;;5.53;100.00;101682.63;5020706;28;19972;-75
2021/10/01 04:37:45;;;;;;;;;;;;;;;5.53;100.00;101674.56;5003971;28;20389;-74
2021/10/01 04:40:12;;;;;;;;;;;;;;;5.53;100.00;101673.66;4976761;28;20294;-75
2021/10/01 04:42:40;;;;;;;;;;;;;;;5.52;100.00;101672.81;4992947;28;19933;-75
2021/10/01 04:45:07;;;;;;;;;;;;;;;5.49;100.00;101661.28;4993484;28;19930;-77
2021/10/01 04:47:33;;;;;;;;;;;;;;;5.47;100.00;101666.75;4998672;28;19926;-76
2021/10/01 04:50:00;;;;;;;;;;;;;;;5.48;100.00;101665.81;5008248;28;20312;-76
2021/10/01 04:52:26;;;;;;;;;;;;;;;5.49;100.00;101662.19;4993104;28;20110;-76
2021/10/01 04:54:53;;;;;;;;;;;;;;;5.48;100.00;101660.41;5010538;28;20377;-75
2021/10/01 04:57:20;;;;;;;;;;;;;;;5.48;100.00;101655.03;5012383;28;20450;-76
2021/10/01 05:00:23;;;;;;;;;;;;;;;5.48;100.00;101654.16;4991143;28;19926;-75
2021/10/01 05:03:08;;;;;;;;;;;;;;;5.47;100.00;101658.66;5011625;28;19932;-76
2021/10/01 05:06:00;;;;;;;;;;;;;;;5.47;100.00;101668.56;5013237;28;20293;-76
2021/10/01 05:08:44;;;;;;;;;;;;;;;5.47;100.00;101658.66;5013512;28;19952;-76
2021/10/01 05:11:40;;;;;;;;;;;;;;;5.52;100.00;101659.34;5013321;28;19932;-75
2021/10/01 05:14:44;;;;;;;;;;;;;;;5.56;100.00;101667.25;5013300;28;20357;-75
2021/10/01 05:17:33;;;;;;;;;;;;;;;5.61;100.00;101665.25;5012857;28;20017;-75
2021/10/01 05:20:31;;;;;;;;;;;;;;;5.66;100.00;101663.22;4986966;28;19932;-74
2021/10/01 05:23:06;;;;;;;;;;;;;;;5.73;100.00;101661.13;4991563;28;20367;-74
2021/10/01 05:25:32;;;;;;;;;;;;;;;5.79;100.00;101660.84;4992197;28;20386;-75
2021/10/01 05:27:58;;;;;;;;;;;;;;;5.93;100.00;101665.59;4992217;28;19981;-75
2021/10/01 05:30:25;;;;;;;;;;;;;;;6.00;100.00;101664.41;5011085;28;19925;-75
2021/10/01 05:32:52;;;;;;;;;;;;;;;6.05;100.00;101656.94;5004868;28;20365;-76
2021/10/01 05:35:19;;;;;;;;;;;;;;;6.14;100.00;101661.91;5008958;28;19961;-75
2021/10/01 05:37:46;;;;;;;;;;;;;;;6.35;100.00;101651.91;5010814;28;19953;-75
2021/10/01 05:40:13;;;;;;;;;;;;;;;6.62;100.00;101650.63;5001798;28;19933;-69
2021/10/01 05:42:39;;;;;;;;;;;;;;;6.90;100.00;101651.94;5017662;28;20456;-68
2021/10/01 05:45:07;;;;;;;;;;;;;;;7.12;100.00;101641.78;4997268;28;19965;-69
2021/10/01 05:47:53;;;;;;;;;;;;;;;7.20;100.00;101646.75;5022869;28;19971;-68
2021/10/01 05:50:40;;;;;;;;;;;;;;;7.25;100.00;101642.00;5024517;28;19937;-69
2021/10/01 05:53:38;;;;;;;;;;;;;;;7.37;100.00;101641.34;5021276;28;19949;-69
2021/10/01 05:56:22;;;;;;;;;;;;;;;7.50;100.00;101638.00;4992725;28;19937;-69
2021/10/01 05:59:07;;;;;;;;;;;;;;;7.56;100.00;101642.19;4993672;28;19932;-69
2021/10/01 06:01:36;;;;;;;;;;;;;;;7.69;100.00;101646.84;4990845;28;19972;-70
2021/10/01 06:04:04;;;;;;;;;;;;;;;7.80;100.00;101639.97;5007500;28;20025;-70
2021/10/01 06:06:30;;;;;;;;;;;;;;;7.87;100.00;101639.56;5005149;28;20202;-70
2021/10/01 06:08:56;;;;;;;;;;;;;;;7.96;100.00;101640.00;5002194;28;20298;-69
2021/10/01 06:11:23;;;;;;;;;;;;;;;8.03;100.00;101638.69;5011571;28;19952;-69
2021/10/01 06:13:49;;;;;;;;;;;;;;;8.01;100.00;101637.91;5030580;28;19925;-69
2021/10/01 06:16:15;;;;;;;;;;;;;;;8.00;100.00;101641.56;5023976;28;19995;-69
2021/10/01 06:18:41;;;;;;;;;;;;;;;8.04;100.00;101637.72;4992509;28;19926;-69
2021/10/01 06:21:09;;;;;;;;;;;;;;;8.03;100.00;101646.78;4994357;28;19984;-69
2021/10/01 06:23:35;;;;;;;;;;;;;;;7.95;100.00;101639.13;5028757;28;19965;-69
2021/10/01 06:26:02;;;;;;;;;;;;;;;7.99;100.00;101645.22;4998167;28;20449;-69
2021/10/01 06:28:29;;;;;;;;;;;;;;;8.20;100.00;101640.44;5031281;28;20296;-70
2021/10/01 06:30:58;;;;;;;;;;;;;;;8.49;100.00;101638.81;5028436;28;20388;-70
2021/10/01 06:33:24;;;;;;;;;;;;;;;8.65;100.00;101635.22;5031167;28;20377;-70
2021/10/01 06:35:50;;;;;;;;;;;;;;;8.69;100.00;101621.41;5014090;28;19941;-70
2021/10/01 06:38:18;;;;;;;;;;;;;;;8.85;100.00;101624.06;5011179;28;20025;-70
2021/10/01 06:40:44;;;;;;;;;;;;;;;9.08;100.00;101619.09;5010238;28;20075;-70
2021/10/01 06:43:12;;;;;;;;;;;;;;;9.14;100.00;101615.16;5011566;28;19926;-69
2021/10/01 06:45:40;;;;;;;;;;;;;;;9.24;100.00;101612.78;5010875;28;19948;-70
2021/10/01 06:48:15;;;;;;;;;;;;;;;9.27;100.00;101610.72;5011597;28;19932;-70
2021/10/01 07:35:25;;;;;;;;;;;;;;;11.33;100.00;101605.41;4996176;28;19932;-70
2021/10/01 08:19:20;;;;;;;;;;;;;;;12.67;100.00;101586.63;5002306;28;20416;-69
2021/10/01 08:21:47;;;;;;;;;;;;;;;12.65;100.00;101588.56;5012362;28;19932;-69
2021/10/01 08:24:13;;;;;;;;;;;;;;;12.62;100.00;101584.22;5008570;28;19961;-69
2021/10/01 08:26:40;;;;;;;;;;;;;;;12.66;100.00;101579.44;4994573;28;20291;-69
2021/10/01 08:29:06;;;;;;;;;;;;;;;12.74;100.00;101585.16;4995472;28;20033;-71
2021/10/01 08:31:34;;;;;;;;;;;;;;;12.89;100.00;101581.25;5008289;28;19925;-70
2021/10/01 08:34:00;;;;;;;;;;;;;;;13.18;100.00;101586.25;4996612;28;20036;-70
2021/10/01 08:36:27;;;;;;;;;;;;;;;13.50;100.00;101584.75;5002353;28;19961;-70
2021/10/01 08:39:08;;;;;;;;;;;;;;;13.36;100.00;101583.09;4999909;28;19929;-70
2021/10/01 08:41:36;;;;;;;;;;;;;;;13.65;100.00;101582.63;4999354;28;20024;-70
2021/10/01 08:44:03;;;;;;;;;;;;;;;13.88;100.00;101578.03;5000060;28;20358;-70
2021/10/01 08:46:30;;;;;;;;;;;;;;;13.71;100.00;101587.59;4994181;28;20026;-70
2021/10/01 08:49:00;;;;;;;;;;;;;;;13.90;100.00;101582.38;4999709;28;19929;-69
2021/10/01 08:51:26;;;;;;;;;;;;;;;14.12;100.00;101579.72;5008644;28;19933;-69
2021/10/01 08:53:53;;;;;;;;;;;;;;;14.29;100.00;101578.34;5011368;28;19961;-70
2021/10/01 08:56:20;;;;;;;;;;;;;;;14.57;100.00;101568.69;4999871;28;20405;-70
2021/10/01 08:58:46;;;;;;;;;;;;;;;14.84;100.00;101560.00;5011727;28;20012;-70
2021/10/01 09:01:13;;;;;;;;;;;;;;;15.01;100.00;101554.97;4998920;28;19950;-70
2021/10/01 09:03:40;;;;;;;;;;;;;;;15.28;100.00;101556.28;4993736;28;19980;-73
2021/10/01 09:06:08;;;;;;;;;;;;;;;15.70;100.00;101554.31;4997664;28;19930;-73
2021/10/01 09:08:48;;;;;;;;;;;;;;;15.88;100.00;101548.19;5006324;28;20019;-73
2021/10/01 09:11:14;;;;;;;;;;;;;;;16.31;100.00;101546.13;5007819;28;20011;-73
2021/10/01 09:13:43;;;;;;;;;;;;;;;16.47;100.00;101546.41;5007286;28;19941;-73
2021/10/01 09:16:11;;;;;;;;;;;;;;;16.40;100.00;101543.38;5008286;28;20031;-73
2021/10/01 09:18:39;;;;;;;;;;;;;;;16.63;100.00;101534.88;4997520;28;19965;-74
2021/10/01 09:21:06;;;;;;;;;;;;;;;17.12;100.00;101545.84;5009838;28;19929;-73
2021/10/01 09:23:40;;;;;;;;;;;;;;;17.14;100.00;101543.78;4997495;28;20350;-73
2021/10/01 09:26:07;;;;;;;;;;;;;;;17.30;98.91;101531.34;5000924;28;19930;-73
2021/10/01 09:28:43;;;;;;;;;;;;;;;17.40;98.78;101535.78;4998436;28;20003;-74
2021/10/01 09:31:09;;;;;;;;;;;;;;;17.70;94.44;101530.16;5000447;28;20347;-73
2021/10/01 09:33:43;;;;;;;;;;;;;;;17.46;93.76;101530.72;5010291;28;19926;-73
2021/10/01 09:36:09;;;;;;;;;;;;;;;17.56;95.30;101529.66;4999371;28;20016;-74
2021/10/01 09:38:37;;;;;;;;;;;;;;;17.62;96.97;101525.44;4996604;28;19930;-74
2021/10/01 09:41:15;;;;;;;;;;;;;;;17.55;92.58;101518.81;4998120;28;19933;-74
2021/10/01 09:43:41;;;;;;;;;;;;;;;17.38;93.00;101513.13;4999175;28;20012;-74
2021/10/01 09:46:09;;;;;;;;;;;;;;;17.51;98.86;101509.16;4996632;28;20451;-73
2021/10/01 09:48:36;;;;;;;;;;;;;;;17.58;94.64;101515.78;5002113;28;20016;-73
2021/10/01 09:51:09;;;;;;;;;;;;;;;17.77;95.35;101508.47;4997528;28;20396;-73
2021/10/01 09:53:43;;;;;;;;;;;;;;;17.85;90.27;101508.53;5007410;28;19964;-73
2021/10/01 09:56:17;;;;;;;;;;;;;;;18.02;87.75;101505.00;5011965;28;20036;-73
2021/10/01 09:58:43;;;;;;;;;;;;;;;17.83;92.62;101502.38;4993029;28;20339;-73
2021/10/01 10:01:10;;;;;;;;;;;;;;;17.86;93.92;101496.56;5000747;28;20020;-73
2021/10/01 10:03:36;;;;;;;;;;;;;;;17.92;92.27;101501.47;5012352;28;20023;-73
2021/10/01 10:06:03;;;;;;;;;;;;;;;18.35;92.43;101499.84;5000477;28;20020;-73
2021/10/01 10:08:31;;;;;;;;;;;;;;;18.42;90.03;101497.34;5003583;28;20008;-73
2021/10/01 10:10:58;;;;;;;;;;;;;;;18.72;85.44;101490.56;4992510;28;20280;-73
2021/10/01 10:13:38;;;;;;;;;;;;;;;18.66;88.96;101487.59;4993971;28;20412;-73
2021/10/01 10:16:05;;;;;;;;;;;;;;;18.44;84.25;101486.19;4992067;28;20021;-73
2021/10/01 10:18:31;;;;;;;;;;;;;;;18.39;88.83;101481.16;4990871;28;20394;-73
2021/10/01 10:20:58;;;;;;;;;;;;;;;18.14;83.35;101472.69;4991803;28;20028;-73
2021/10/01 10:23:24;;;;;;;;;;;;;;;17.82;87.16;101479.50;4991865;28;20025;-73
2021/10/01 10:25:50;;;;;;;;;;;;;;;18.12;90.68;101477.47;4992032;28;20474;-73
2021/10/01 10:28:18;;;;;;;;;;;;;;;18.46;89.86;101475.91;4993028;28;19969;-73
2021/10/01 10:30:47;;;;;;;;;;;;;;;18.70;89.78;101478.00;5002348;28;20020;-73
2021/10/01 10:33:29;;;;;;;;;;;;;;;18.59;83.26;101465.38;4991980;28;20310;-72
2021/10/01 10:35:55;;;;;;;;;;;;;;;18.03;83.00;101470.16;4991897;28;19932;-74
2021/10/01 10:38:31;;;;;;;;;;;;;;;18.21;85.45;101476.53;5013033;28;19957;-73
2021/10/01 10:40:58;;;;;;;;;;;;;;;18.20;85.84;101465.72;5009512;28;20440;-74
2021/10/01 10:43:25;;;;;;;;;;;;;;;18.11;87.61;101458.41;5000243;28;20029;-75
2021/10/01 10:45:53;;;;;;;;;;;;;;;17.85;87.63;101449.03;5004461;28;19925;-75
2021/10/01 10:48:19;;;;;;;;;;;;;;;17.73;87.28;101450.22;4998256;28;19930;-75
2021/10/01 10:50:51;;;;;;;;;;;;;;;17.39;92.10;101453.63;4991882;28;19957;-74
2021/10/01 10:53:26;;;;;;;;;;;;;;;17.55;91.01;101439.22;4991358;28;19930;-75
2021/10/01 10:55:54;;;;;;;;;;;;;;;17.87;88.37;101444.22;4993108;28;20348;-74
2021/10/01 10:58:35;;;;;;;;;;;;;;;18.38;87.95;101440.97;5000806;28;20032;-74
2021/10/01 11:01:23;;;;;;;;;;;;;;;19.00;86.81;101442.81;5018979;28;19932;-73
2021/10/01 11:04:10;;;;;;;;;;;;;;;19.11;76.61;101434.28;5007286;28;19936;-73
2021/10/01 11:06:38;;;;;;;;;;;;;;;18.51;80.42;101430.41;4991532;28;19957;-73
2021/10/01 11:09:19;;;;;;;;;;;;;;;18.59;79.10;101440.63;4993072;28;19973;-74
2021/10/01 11:11:46;;;;;;;;;;;;;;;18.47;83.79;101431.75;5004553;28;20020;-73
2021/10/01 11:14:19;;;;;;;;;;;;;;;18.44;82.85;101432.09;5007112;28;19925;-71
2021/10/01 11:17:07;;;;;;;;;;;;;;;18.54;83.88;101430.09;5008951;28;19930;-76
2021/10/01 11:19:38;;;;;;;;;;;;;;;18.57;83.55;101427.03;4993127;28;19984;-76
2021/10/01 11:22:24;;;;;;;;;;;;;;;18.71;86.67;101416.47;4992504;28;20364;-76
2021/10/01 11:24:55;;;;;;;;;;;;;;;18.45;78.21;101417.31;5003091;28;19926;-76
2021/10/01 11:27:22;;;;;;;;;;;;;;;18.24;79.18;101417.66;5010697;28;19975;-76
2021/10/01 11:29:48;;;;;;;;;;;;;;;18.55;80.56;101414.47;4998872;28;20386;-76
2021/10/01 11:32:18;;;;;;;;;;;;;;;18.83;77.31;101406.91;5001632;28;20033;-76
2021/10/01 11:34:47;;;;;;;;;;;;;;;18.83;69.84;101403.31;4991479;28;19926;-77
2021/10/01 11:37:21;;;;;;;;;;;;;;;18.93;73.52;101411.47;4998584;28;20485;-75
2021/10/01 11:39:47;;;;;;;;;;;;;;;18.84;72.75;101394.91;5011185;28;20016;-76
2021/10/01 11:42:20;;;;;;;;;;;;;;;18.79;71.37;101399.19;5010250;28;19995;-76
2021/10/01 11:44:46;;;;;;;;;;;;;;;18.40;67.53;101394.97;5011020;28;19926;-74
2021/10/01 11:47:12;;;;;;;;;;;;;;;18.44;73.03;101390.88;5010503;28;20036;-76
2021/10/01 11:49:39;;;;;;;;;;;;;;;18.49;70.38;101380.25;5011337;28;19925;-76
2021/10/01 11:52:09;;;;;;;;;;;;;;;18.62;69.69;101387.19;5007768;28;20305;-77
2021/10/01 11:54:36;;;;;;;;;;;;;;;19.09;68.91;101384.03;5011270;28;19926;-76
2021/10/01 11:57:03;;;;;;;;;;;;;;;19.47;64.91;101384.56;5000184;28;20020;-76
2021/10/01 11:59:44;;;;;;;;;;;;;;;19.38;61.56;101380.03;5030685;28;19932;-76
2021/10/01 12:02:11;;;;;;;;;;;;;;;19.63;57.45;101378.22;5009248;28;19956;-76
2021/10/01 12:04:37;;;;;;;;;;;;;;;20.07;60.61;101380.72;5008269;28;20282;-77
2021/10/01 12:07:04;;;;;;;;;;;;;;;20.24;55.23;101373.31;4995065;28;20028;-76
2021/10/01 12:09:32;;;;;;;;;;;;;;;20.52;54.04;101364.69;5007711;28;19956;-76
2021/10/01 12:12:05;;;;;;;;;;;;;;;20.15;54.18;101371.59;5008388;28;20020;-76
2021/10/01 12:14:31;;;;;;;;;;;;;;;19.52;55.76;101364.75;4995322;28;19934;-76
2021/10/01 12:16:58;;;;;;;;;;;;;;;19.44;56.35;101360.13;5014296;28;20108;-77
2021/10/01 12:19:26;;;;;;;;;;;;;;;19.00;55.81;101347.41;5013629;28;20397;-75
2021/10/01 12:22:02;;;;;;;;;;;;;;;19.09;57.56;101353.78;4994575;28;19979;-76
2021/10/01 12:24:28;;;;;;;;;;;;;;;19.96;57.33;101355.41;4995151;28;19930;-76
2021/10/01 12:26:56;;;;;;;;;;;;;;;20.62;55.53;101358.09;4995386;28;19993;-77
2021/10/01 12:29:23;;;;;;;;;;;;;;;21.07;53.19;101354.72;4997156;28;20052;-76
2021/10/01 12:31:51;;;;;;;;;;;;;;;21.47;52.64;101351.94;5013602;28;19925;-72
2021/10/01 12:34:19;;;;;;;;;;;;;;;21.16;50.41;101346.41;4997677;28;19988;-73
2021/10/01 12:36:46;;;;;;;;;;;;;;;21.19;51.72;101337.75;4998927;28;20369;-70
2021/10/01 12:39:13;;;;;;;;;;;;;;;20.73;51.55;101343.97;5004861;28;19965;-70
2021/10/01 12:41:39;;;;;;;;;;;;;;;19.94;53.59;101335.44;5005660;28;19932;-69
2021/10/01 12:44:09;;;;;;;;;;;;;;;20.02;54.45;101321.66;5009163;28;20468;-69
2021/10/01 12:46:37;;;;;;;;;;;;;;;20.08;53.14;101318.19;5001101;28;20033;-68
2021/10/01 12:49:11;;;;;;;;;;;;;;;19.92;55.37;101321.81;4999193;28;19926;-68
2021/10/01 12:51:38;;;;;;;;;;;;;;;20.36;54.60;101313.19;4993400;28;20008;-70
2021/10/01 12:54:21;;;;;;;;;;;;;;;20.87;54.14;101309.25;4975102;28;20016;-69
2021/10/01 12:56:47;;;;;;;;;;;;;;;20.38;53.51;101307.50;4974687;28;19930;-71
2021/10/01 12:59:35;;;;;;;;;;;;;;;20.58;52.75;101305.22;4992424;28;20044;-71
2021/10/01 13:02:11;;;;;;;;;;;;;;;20.34;53.11;101301.47;4991696;28;20385;-71
2021/10/01 13:04:48;;;;;;;;;;;;;;;20.41;51.67;101287.84;4992186;28;20416;-71
2021/10/01 13:07:21;;;;;;;;;;;;;;;20.15;50.24;101285.28;4992516;28;20063;-71
2021/10/01 13:09:48;;;;;;;;;;;;;;;20.15;50.25;101285.28;4994016;28;20021;-70
2021/10/01 13:12:26;;;;;;;;;;;;;;;20.14;51.81;101278.94;4993158;28;20028;-71
2021/10/01 13:17:59;;;;;;;;;;;;;;;20.23;48.71;101272.38;5109482;27;19995;-71
2021/10/01 13:20:26;;;;;;;;;;;;;;;20.23;48.76;101266.88;5109254;28;19928;-71
2021/10/01 13:22:53;;;;;;;;;;;;;;;20.29;51.08;101265.28;5109484;28;20007;-71
2021/10/01 13:25:22;;;;;;;;;;;;;;;20.17;49.30;101267.56;5109302;28;19928;-70
2021/10/01 13:27:49;;;;;;;;;;;;;;;20.38;48.16;101258.72;5109328;28;20023;-71
2021/10/01 13:30:15;;;;;;;;;;;;;;;20.26;48.89;101260.16;5109014;28;19974;-71
2021/10/01 13:32:41;;;;;;;;;;;;;;;20.61;47.73;101259.88;5108197;28;19932;-71
2021/10/01 13:35:11;;;;;;;;;;;;;;;20.56;46.83;101261.28;5109086;28;20015;-70
2021/10/01 13:37:37;;;;;;;;;;;;;;;20.62;46.77;101256.06;5108784;28;19924;-71
2021/10/01 13:40:04;;;;;;;;;;;;;;;21.19;45.29;101254.94;5109001;28;20022;-70
2021/10/01 13:42:31;;;;;;;;;;;;;;;21.23;45.10;101254.41;5105168;28;20061;-71
2021/10/01 13:44:57;;;;;;;;;;;;;;;20.43;46.20;101241.66;5088811;28;20024;-71
2021/10/01 13:47:23;;;;;;;;;;;;;;;20.18;47.91;101238.97;5088493;28;20015;-71
2021/10/01 13:49:50;;;;;;;;;;;;;;;20.27;48.42;101237.06;5088401;28;20022;-71
2021/10/01 13:52:17;;;;;;;;;;;;;;;20.21;45.18;101229.50;5088426;28;20016;-71
2021/10/01 13:54:44;;;;;;;;;;;;;;;20.06;44.87;101223.84;5088499;28;20479;-71
2021/10/01 13:57:10;;;;;;;;;;;;;;;20.40;45.25;101226.34;5088191;28;20027;-70
2021/10/01 13:59:36;;;;;;;;;;;;;;;20.88;46.28;101223.59;5087118;28;20360;-70
2021/10/01 14:02:03;;;;;;;;;;;;;;;20.92;45.04;101213.03;5088616;28;20023;-70
2021/10/01 14:04:29;;;;;;;;;;;;;;;21.29;44.72;101218.84;5088333;28;19925;-70
2021/10/01 14:06:55;;;;;;;;;;;;;;;20.68;42.97;101211.22;5088109;28;20085;-74
2021/10/01 14:09:23;;;;;;;;;;;;;;;20.51;45.05;101215.94;5087021;28;19925;-74
2021/10/01 14:11:49;;;;;;;;;;;;;;;19.97;45.13;101205.59;5087834;28;20445;-74
2021/10/01 14:14:15;;;;;;;;;;;;;;;20.22;46.29;101210.00;5088168;28;20015;-74
2021/10/01 14:16:41;;;;;;;;;;;;;;;20.14;45.44;101210.03;5087763;28;20015;-73